CYAB

Arctic Bay

Arctic Bay, , Canada
METAR CYAB 182100Z VRB02KT 15SM IC FEW030 BKN210 M28/M32 A2982 RMK SC1CI4 -26.5/-31.0/0.0/LAST STFD OBS/NEXT 191800Z CIG ESTD FROIN SLP103
Observed Flight Rules
Jan-18 @ 21:00 UTC (20 hours ago) Visual Flight Rules
Wind Visibility Clouds Conditions
Variable at 2 knots 15 miles
  • Few at 3,000' AGL
  • Broken at 21,000' AGL
  • Ice crystals
Temperatures Readings
Current -28°C / -18°F
Dewpoint -32°C / -26°F
Humidity 69%
Altimeter 29.82" Hg
Pressure 1010.3 hPa
Elevation 22
METAR CYAB 182100Z VRB02KT 15SM IC FEW030 BKN210 M28/M32 A2982 RMK SC1CI4 -26.5/-31.0/0.0/LAST STFD OBS/NEXT 191800Z CIG ESTD FROIN SLP103
Observed Flight Rules
Jan-18 @ 21:00 UTC
(20 hours ago)
VFR
Wind Visibility
Variable at 2 knots 15 miles
Clouds
  • Few at 3,000' AGL
  • Broken at 21,000' AGL
Conditions
  • Ice crystals
Temperature Dewpoint
-28°C / -18°F -32°C / -26°F
Humidity Altimeter Pressure
69% 29.82" Hg 1010.3 hPa